createdAt,value
2023-03-02T00:01:10.760Z,32.58
2023-03-02T00:03:40.614Z,30.40
2023-03-02T00:06:08.883Z,33.00
2023-03-02T00:08:36.333Z,30.57
2023-03-02T00:11:02.977Z,33.20
2023-03-02T00:13:31.264Z,29.20
2023-03-02T00:15:57.739Z,30.57
2023-03-02T00:18:24.831Z,25.95
2023-03-02T00:20:51.236Z,27.67
2023-03-02T00:23:17.739Z,31.27
2023-03-02T00:25:44.200Z,32.00
2023-03-02T00:28:10.717Z,30.20
2023-03-02T00:30:39.028Z,29.35
2023-03-02T00:33:08.169Z,31.33
2023-03-02T00:35:41.298Z,29.37
2023-03-02T00:38:09.669Z,29.83
2023-03-02T00:40:36.766Z,32.00
2023-03-02T00:43:16.483Z,29.80
2023-03-02T00:45:45.676Z,30.00
2023-03-02T00:48:14.989Z,34.43
2023-03-02T00:50:41.599Z,33.80
2023-03-02T00:53:09.366Z,27.98
2023-03-02T00:55:37.372Z,29.43
2023-03-02T00:58:04.987Z,38.33
2023-03-02T01:00:32.779Z,32.70
2023-03-02T01:02:59.440Z,41.00
2023-03-02T01:05:26.043Z,32.88
2023-03-02T01:07:52.557Z,35.95
2023-03-02T01:10:19.045Z,33.90
2023-03-02T01:12:45.527Z,34.95
2023-03-02T01:15:12.736Z,29.88
2023-03-02T01:17:41.249Z,31.03
2023-03-02T01:20:08.920Z,34.33
2023-03-02T01:22:35.391Z,30.50
2023-03-02T01:25:01.906Z,33.35
2023-03-02T01:27:28.782Z,29.63
2023-03-02T01:32:21.855Z,37.45
2023-03-02T01:34:48.284Z,35.05
2023-03-02T01:37:14.724Z,37.60
2023-03-02T01:39:41.338Z,30.63
2023-03-02T01:42:10.345Z,37.72
2023-03-02T01:44:36.789Z,40.67
2023-03-02T01:47:14.649Z,36.20
2023-03-02T01:49:56.774Z,37.30
2023-03-02T01:52:26.358Z,36.27
2023-03-02T01:54:59.409Z,38.93
2023-03-02T01:57:30.627Z,35.50
2023-03-02T02:00:01.185Z,34.50
2023-03-02T02:02:30.756Z,37.67
2023-03-02T02:04:57.682Z,35.63
2023-03-02T02:12:22.149Z,36.07
2023-03-02T02:14:49.743Z,36.30
2023-03-02T02:17:17.682Z,35.47
2023-03-02T02:20:11.024Z,37.93
2023-03-02T02:22:58.115Z,33.10
2023-03-02T02:25:45.959Z,34.30
2023-03-02T02:28:18.514Z,33.30
2023-03-02T02:30:47.899Z,32.20
2023-03-02T02:33:21.296Z,29.63
2023-03-02T02:35:49.160Z,28.90
2023-03-02T02:38:19.250Z,26.60
2023-03-02T02:40:50.844Z,30.47
2023-03-02T02:43:19.682Z,27.00
2023-03-02T02:45:49.325Z,31.63
2023-03-02T02:48:18.462Z,28.63
2023-03-02T02:50:46.431Z,28.03
2023-03-02T02:53:19.385Z,30.53
2023-03-02T02:55:49.075Z,29.13
2023-03-02T02:58:34.030Z,30.90
2023-03-02T03:01:01.640Z,30.00
2023-03-02T03:03:33.777Z,32.13
2023-03-02T03:06:03.272Z,32.30
2023-03-02T03:08:45.563Z,35.53
2023-03-02T03:11:25.524Z,34.23
2023-03-02T03:14:06.407Z,30.27
2023-03-02T03:16:34.359Z,30.73
2023-03-02T03:19:09.654Z,33.73
2023-03-02T03:21:36.366Z,34.43
2023-03-02T03:24:02.912Z,37.70
2023-03-02T03:26:29.928Z,35.85
2023-03-02T03:28:59.317Z,32.60
2023-03-02T03:31:27.743Z,34.30
2023-03-02T03:33:55.913Z,35.03
2023-03-02T03:36:23.182Z,33.33
2023-03-02T03:38:49.745Z,31.00
2023-03-02T03:41:16.189Z,31.20
2023-03-02T03:43:42.670Z,32.10
2023-03-02T03:46:09.143Z,30.52
2023-03-02T03:48:35.628Z,31.55
2023-03-02T03:51:02.078Z,27.17
2023-03-02T03:53:28.704Z,27.05
2023-03-02T03:55:57.132Z,29.38
2023-03-02T03:58:25.288Z,31.10
2023-03-02T04:00:53.249Z,29.40
2023-03-02T04:03:20.479Z,33.00
2023-03-02T04:05:48.211Z,30.30
2023-03-02T04:08:14.975Z,32.97
2023-03-02T04:10:42.346Z,32.92
2023-03-02T04:13:08.919Z,34.63
2023-03-02T04:15:35.722Z,30.50
2023-03-02T04:18:02.742Z,32.28
2023-03-02T04:20:29.656Z,33.87
2023-03-02T04:25:26.084Z,31.00
2023-03-02T04:27:53.652Z,33.93
2023-03-02T04:30:23.532Z,32.97
2023-03-02T04:32:51.494Z,36.23
2023-03-02T04:35:18.435Z,32.17
2023-03-02T04:37:46.966Z,33.87
2023-03-02T04:40:14.987Z,33.63
2023-03-02T04:42:41.860Z,37.23
2023-03-02T04:47:35.192Z,35.77
2023-03-02T04:50:01.683Z,35.47
2023-03-02T04:52:28.190Z,33.03
2023-03-02T04:54:54.594Z,35.92
2023-03-02T04:57:21.133Z,38.63
2023-03-02T04:59:47.534Z,33.67
2023-03-02T05:02:14.011Z,30.73
2023-03-02T05:04:42.320Z,36.70
2023-03-02T05:07:08.965Z,34.63
2023-03-02T05:09:35.442Z,37.42
2023-03-02T05:12:01.983Z,36.72
2023-03-02T05:14:29.602Z,37.88
2023-03-02T05:16:56.184Z,41.20
2023-03-02T05:19:23.141Z,34.20
2023-03-02T05:26:42.789Z,34.97
2023-03-02T05:29:09.335Z,37.10
2023-03-02T05:31:39.266Z,35.60
2023-03-02T05:34:12.409Z,35.77
2023-03-02T05:36:39.116Z,36.03
2023-03-02T05:39:08.299Z,39.35
2023-03-02T05:41:35.674Z,38.63
2023-03-02T05:44:09.318Z,39.47
2023-03-02T05:46:36.825Z,37.70
2023-03-02T05:49:03.856Z,39.77
2023-03-02T05:53:56.689Z,35.70
2023-03-02T05:56:23.118Z,37.83
2023-03-02T05:58:49.589Z,36.58
2023-03-02T06:01:15.987Z,35.92
2023-03-02T06:03:43.259Z,38.58
2023-03-02T06:06:13.809Z,39.37
2023-03-02T06:08:44.233Z,39.50
2023-03-02T06:11:11.897Z,35.07
2023-03-02T06:13:39.162Z,39.17
2023-03-02T06:16:06.036Z,35.10
2023-03-02T06:23:26.193Z,43.70
2023-03-02T06:25:52.741Z,47.92
2023-03-02T06:28:20.146Z,51.95
2023-03-02T06:30:48.728Z,49.63
2023-03-02T06:33:21.779Z,48.13
2023-03-02T06:35:48.880Z,51.50
2023-03-02T06:38:15.431Z,49.47
2023-03-02T06:40:41.904Z,43.08
2023-03-02T06:43:08.334Z,43.88
2023-03-02T06:45:34.949Z,45.63
2023-03-02T06:48:02.324Z,47.90
2023-03-02T06:50:28.933Z,43.50
2023-03-02T06:52:57.022Z,41.90
2023-03-02T06:55:23.954Z,40.53
2023-03-02T07:00:18.226Z,39.77
2023-03-02T07:02:45.442Z,42.13
2023-03-02T07:05:13.105Z,47.13
2023-03-02T07:07:39.881Z,50.27
2023-03-02T07:10:08.059Z,48.65
2023-03-02T07:12:34.792Z,48.53
2023-03-02T07:15:01.269Z,51.90
2023-03-02T07:17:27.685Z,49.00
2023-03-02T07:19:54.304Z,55.35
2023-03-02T07:22:20.808Z,48.10
2023-03-02T07:24:47.260Z,51.92
2023-03-02T07:27:13.838Z,52.25
2023-03-02T07:29:40.290Z,50.45
2023-03-02T07:32:06.963Z,50.38
2023-03-02T07:34:33.723Z,49.70
2023-03-02T07:37:00.146Z,56.85
2023-03-02T07:39:26.629Z,60.33
2023-03-02T07:41:53.056Z,58.88
2023-03-02T07:44:19.534Z,59.95
2023-03-02T07:46:46.053Z,60.20
2023-03-02T07:49:12.512Z,58.85
2023-03-02T07:51:39.190Z,64.72
2023-03-02T07:54:13.647Z,64.45
2023-03-02T07:56:40.200Z,58.93
2023-03-02T07:59:06.848Z,62.13
2023-03-02T08:01:36.277Z,65.32
2023-03-02T08:04:02.928Z,57.70
2023-03-02T08:06:29.779Z,56.15
2023-03-02T08:08:56.795Z,61.80
2023-03-02T08:13:49.635Z,55.65
2023-03-02T08:16:16.174Z,59.83
2023-03-02T08:18:42.892Z,59.42
2023-03-02T08:21:18.045Z,64.28
2023-03-02T08:23:45.644Z,57.97
2023-03-02T08:26:14.279Z,58.50
2023-03-02T08:28:42.621Z,64.57
2023-03-02T08:31:10.147Z,65.63
2023-03-02T08:33:37.774Z,60.07
2023-03-02T08:36:07.399Z,61.47
2023-03-02T08:38:34.883Z,60.10
2023-03-02T08:41:15.232Z,64.57
2023-03-02T08:43:42.180Z,61.60
2023-03-02T08:48:39.020Z,60.33
2023-03-02T08:51:12.821Z,55.00
2023-03-02T08:53:42.925Z,58.47
2023-03-02T08:56:16.597Z,61.28
2023-03-02T08:58:43.110Z,62.00
2023-03-02T09:01:22.015Z,65.28
2023-03-02T09:03:48.698Z,52.30
2023-03-02T09:06:15.718Z,47.92
2023-03-02T09:11:09.364Z,48.83
2023-03-02T09:13:36.182Z,45.33
2023-03-02T09:16:03.172Z,42.65
2023-03-02T09:20:58.087Z,37.50
2023-03-02T09:23:26.061Z,37.63
2023-03-02T09:25:53.371Z,34.33
2023-03-02T09:28:21.751Z,34.72
2023-03-02T09:30:53.434Z,24.45
2023-03-02T09:33:20.851Z,23.13
2023-03-02T09:35:47.935Z,21.13
2023-03-02T09:41:20.195Z,19.98
2023-03-02T09:44:29.912Z,19.95
2023-03-02T09:47:02.827Z,15.98
2023-03-02T09:50:00.518Z,13.45
2023-03-02T09:52:38.131Z,14.00
2023-03-02T09:55:19.574Z,15.63
2023-03-02T09:57:48.610Z,16.08
2023-03-02T10:00:24.493Z,14.07
2023-03-02T10:03:05.140Z,14.87
2023-03-02T10:05:39.574Z,12.93
2023-03-02T10:08:11.640Z,13.45
2023-03-02T10:10:44.324Z,16.00
2023-03-02T10:13:28.638Z,14.02
2023-03-02T10:15:57.814Z,13.88
2023-03-02T10:18:34.341Z,16.52
2023-03-02T10:21:06.801Z,15.68
2023-03-02T10:23:51.467Z,14.45
2023-03-02T10:26:41.745Z,16.33
2023-03-02T10:29:27.082Z,19.85
2023-03-02T10:32:17.902Z,14.07
2023-03-02T10:34:44.434Z,19.50
2023-03-02T10:37:25.060Z,18.52
2023-03-02T10:40:23.849Z,14.85
2023-03-02T10:42:50.418Z,18.00
2023-03-02T10:45:33.129Z,14.32
2023-03-02T10:48:10.104Z,17.23
2023-03-02T10:50:37.139Z,15.10
2023-03-02T10:55:33.728Z,14.07
2023-03-02T10:58:22.810Z,14.20
2023-03-02T11:00:57.937Z,17.33
2023-03-02T11:03:25.247Z,14.23
2023-03-02T11:05:51.860Z,15.30
2023-03-02T11:08:26.262Z,16.10
2023-03-02T11:11:01.687Z,16.10
2023-03-02T11:13:39.326Z,15.60
2023-03-02T11:16:17.911Z,15.90
2023-03-02T11:19:10.002Z,15.30
2023-03-02T11:21:43.438Z,17.00
2023-03-02T11:24:25.944Z,15.65
2023-03-02T11:26:55.082Z,17.02
2023-03-02T11:29:49.939Z,16.95
2023-03-02T11:32:41.034Z,14.93
2023-03-02T11:35:22.790Z,15.30
2023-03-02T11:37:55.795Z,18.05
2023-03-02T11:40:30.356Z,18.00
2023-03-02T11:42:59.174Z,20.13
2023-03-02T11:45:32.897Z,17.38
2023-03-02T11:48:08.855Z,18.40
2023-03-02T11:50:48.572Z,17.40
2023-03-02T11:53:19.306Z,17.90
2023-03-02T11:55:49.451Z,18.92
2023-03-02T11:58:26.779Z,21.95
2023-03-02T12:00:54.808Z,20.35
2023-03-02T12:03:41.385Z,22.30
2023-03-02T12:08:54.658Z,22.70
2023-03-02T12:11:21.015Z,22.83
2023-03-02T12:14:03.032Z,23.55
2023-03-02T12:16:42.926Z,21.80
2023-03-02T12:19:18.109Z,23.95
2023-03-02T12:22:02.812Z,23.40
2023-03-02T12:24:34.986Z,24.20
2023-03-02T12:27:02.774Z,21.73
2023-03-02T12:29:58.598Z,27.17
2023-03-02T12:32:29.222Z,22.48
2023-03-02T12:35:08.911Z,25.08
2023-03-02T12:37:48.457Z,25.52
2023-03-02T12:40:33.987Z,25.05
2023-03-02T12:43:09.665Z,23.85
2023-03-02T12:45:55.270Z,24.98
2023-03-02T12:48:43.291Z,23.07
2023-03-02T12:51:24.612Z,24.65
2023-03-02T12:54:06.290Z,23.08
2023-03-02T12:56:34.024Z,25.85
2023-03-02T12:59:00.690Z,23.17
2023-03-02T13:01:30.529Z,22.67
2023-03-02T13:03:57.352Z,24.20
2023-03-02T13:06:27.556Z,23.25
2023-03-02T13:08:57.258Z,20.85
2023-03-02T13:11:31.074Z,23.15
2023-03-02T13:13:59.741Z,23.98
2023-03-02T13:16:34.297Z,22.08
2023-03-02T13:19:03.686Z,19.58
2023-03-02T13:21:37.857Z,20.80
2023-03-02T13:24:25.155Z,21.38
2023-03-02T13:27:07.975Z,21.85
2023-03-02T13:29:34.652Z,21.95
2023-03-02T13:32:27.019Z,22.45
2023-03-02T13:34:57.304Z,20.50
2023-03-02T13:37:38.812Z,21.98
2023-03-02T13:40:32.944Z,20.73
2023-03-02T13:43:00.105Z,19.20
2023-03-02T13:45:32.966Z,21.23
2023-03-02T13:48:15.276Z,20.40
2023-03-02T13:50:51.658Z,18.92
2023-03-02T13:53:18.233Z,19.23
2023-03-02T13:55:44.790Z,23.45
2023-03-02T13:58:16.676Z,21.70
2023-03-02T14:00:43.585Z,20.98
2023-03-02T14:03:30.594Z,20.30
2023-03-02T14:05:58.776Z,18.80
2023-03-02T14:08:25.489Z,20.67
2023-03-02T14:10:55.206Z,20.90
2023-03-02T14:13:30.297Z,21.70
2023-03-02T14:15:57.334Z,20.38
2023-03-02T14:21:14.821Z,21.25
2023-03-02T14:23:41.526Z,21.25
2023-03-02T14:26:20.059Z,22.05
2023-03-02T14:28:51.078Z,19.75
2023-03-02T14:31:20.168Z,22.52
2023-03-02T14:33:46.739Z,21.30
2023-03-02T14:36:17.079Z,20.45
2023-03-02T14:38:44.304Z,22.02
2023-03-02T14:41:22.839Z,23.95
2023-03-02T14:43:50.360Z,21.13
2023-03-02T14:46:17.050Z,20.52
2023-03-02T14:48:43.593Z,20.90
2023-03-02T14:51:24.114Z,20.17
2023-03-02T14:53:54.050Z,23.17
2023-03-02T14:56:25.240Z,19.25
2023-03-02T14:58:52.581Z,20.85
2023-03-02T15:01:20.091Z,25.58
2023-03-02T15:03:46.815Z,25.58
2023-03-02T15:06:29.749Z,24.45
2023-03-02T15:08:58.432Z,23.33
2023-03-02T15:11:25.333Z,24.13
2023-03-02T15:13:52.326Z,26.40
